createdAt,value
2018-03-07T00:02:15.953Z,7.00
2018-03-07T00:04:43.619Z,7.00
2018-03-07T00:07:11.157Z,7.00
2018-03-07T00:09:38.636Z,7.00
2018-03-07T00:12:06.125Z,6.90
2018-03-07T00:14:33.836Z,6.90
2018-03-07T00:17:01.599Z,6.80
2018-03-07T00:19:29.363Z,6.80
2018-03-07T00:21:56.828Z,6.70
2018-03-07T00:24:24.512Z,6.70
2018-03-07T00:26:51.975Z,6.70
2018-03-07T00:29:19.503Z,6.70
2018-03-07T00:31:46.964Z,6.80
2018-03-07T00:34:14.728Z,6.80
2018-03-07T00:36:42.192Z,6.70
2018-03-07T00:39:09.936Z,6.70
2018-03-07T00:41:37.404Z,6.60
2018-03-07T00:44:04.872Z,6.60
2018-03-07T00:46:32.556Z,6.60
2018-03-07T00:49:00.022Z,6.70
2018-03-07T00:51:27.484Z,6.60
2018-03-07T00:53:55.012Z,6.60
2018-03-07T00:56:22.699Z,6.70
2018-03-07T00:58:50.166Z,6.70
2018-03-07T01:01:17.691Z,6.70
2018-03-07T01:03:45.178Z,6.70
2018-03-07T01:06:12.920Z,6.60
2018-03-07T01:08:40.376Z,6.50
2018-03-07T01:11:08.133Z,6.40
2018-03-07T01:13:35.592Z,6.40
2018-03-07T01:16:03.276Z,6.30
2018-03-07T01:18:30.736Z,6.20
2018-03-07T01:20:58.273Z,6.20
2018-03-07T01:23:25.947Z,6.20
2018-03-07T01:25:53.424Z,6.20
2018-03-07T01:28:20.943Z,6.20
2018-03-07T01:30:48.719Z,6.10
2018-03-07T01:33:16.192Z,6.10
2018-03-07T01:35:43.856Z,6.20
2018-03-07T01:38:11.325Z,6.20
2018-03-07T01:40:38.788Z,6.20
2018-03-07T01:43:06.329Z,6.20
2018-03-07T01:45:33.779Z,6.20
2018-03-07T01:48:01.547Z,6.10
2018-03-07T01:50:29.228Z,6.10
2018-03-07T01:52:56.767Z,6.10
2018-03-07T01:55:24.531Z,6.10
2018-03-07T01:57:51.996Z,6.00
2018-03-07T02:00:19.752Z,6.00
2018-03-07T02:02:47.216Z,5.90
2018-03-07T02:05:14.889Z,5.80
2018-03-07T02:07:43.353Z,5.70
2018-03-07T02:10:11.037Z,5.60
2018-03-07T02:12:38.493Z,5.60
2018-03-07T02:15:05.972Z,5.60
2018-03-07T02:17:33.432Z,5.60
2018-03-07T02:20:00.947Z,5.70
2018-03-07T02:22:28.636Z,5.80
2018-03-07T02:24:56.099Z,5.80
2018-03-07T02:27:23.559Z,5.90
2018-03-07T02:29:51.023Z,5.90
2018-03-07T02:32:18.553Z,5.90
2018-03-07T02:34:46.310Z,5.90
2018-03-07T02:37:14.077Z,5.90
2018-03-07T02:39:41.540Z,5.90
2018-03-07T02:42:09.008Z,5.90
2018-03-07T02:44:36.892Z,5.90
2018-03-07T02:47:05.144Z,5.80
2018-03-07T02:49:32.608Z,5.80
2018-03-07T02:52:00.073Z,5.70
2018-03-07T02:54:27.824Z,5.70
2018-03-07T02:56:55.293Z,5.70
2018-03-07T02:59:23.043Z,5.70
2018-03-07T03:01:50.506Z,5.60
2018-03-07T03:04:17.971Z,5.60
2018-03-07T03:06:45.640Z,5.50
2018-03-07T03:09:13.179Z,5.50
2018-03-07T03:11:40.856Z,5.30
2018-03-07T03:14:08.407Z,5.20
2018-03-07T03:16:35.864Z,5.20
2018-03-07T03:19:03.542Z,5.10
2018-03-07T03:21:31.773Z,5.00
2018-03-07T03:23:59.235Z,5.00
2018-03-07T03:26:26.831Z,4.80
2018-03-07T03:28:54.384Z,4.70
2018-03-07T03:31:21.844Z,4.70
2018-03-07T03:33:49.759Z,4.70
2018-03-07T03:36:17.364Z,4.70
2018-03-07T03:38:45.139Z,4.60
2018-03-07T03:41:12.904Z,4.50
2018-03-07T03:43:40.356Z,4.50
2018-03-07T03:46:07.812Z,4.40
2018-03-07T03:48:35.497Z,4.30
2018-03-07T03:51:02.961Z,4.20
2018-03-07T03:53:30.497Z,4.20
2018-03-07T03:55:57.960Z,4.10
2018-03-07T03:58:25.720Z,4.00
2018-03-07T04:00:53.175Z,3.90
2018-03-07T04:03:20.644Z,3.80
2018-03-07T04:05:48.103Z,3.70
2018-03-07T04:08:15.862Z,3.60
2018-03-07T04:10:43.619Z,3.50
2018-03-07T04:13:11.392Z,3.30
2018-03-07T04:15:39.073Z,3.40
2018-03-07T04:18:07.292Z,3.20
2018-03-07T04:20:34.996Z,3.20
2018-03-07T04:23:02.757Z,3.20
2018-03-07T04:25:30.267Z,3.10
2018-03-07T04:27:57.975Z,3.10
2018-03-07T04:30:25.440Z,3.10
2018-03-07T04:32:53.115Z,3.10
2018-03-07T04:35:20.655Z,3.00
2018-03-07T04:37:48.420Z,3.00
2018-03-07T04:40:16.184Z,2.90
2018-03-07T04:42:43.657Z,2.80
2018-03-07T04:45:11.115Z,2.80
2018-03-07T04:47:38.820Z,2.70
2018-03-07T04:50:06.328Z,2.70
2018-03-07T04:52:34.000Z,2.60
2018-03-07T04:55:01.468Z,2.60
2018-03-07T04:57:28.924Z,2.60
2018-03-07T04:59:56.462Z,2.50
2018-03-07T05:02:23.951Z,2.50
2018-03-07T05:04:51.402Z,2.50
2018-03-07T05:07:19.148Z,2.40
2018-03-07T05:09:46.840Z,2.40
2018-03-07T05:12:14.311Z,2.40
2018-03-07T05:14:41.974Z,2.50
2018-03-07T05:17:09.430Z,2.50
2018-03-07T05:19:37.050Z,2.60
2018-03-07T05:22:04.520Z,2.70
2018-03-07T05:24:31.977Z,2.50
2018-03-07T05:26:59.439Z,2.40
2018-03-07T05:29:27.195Z,2.30
2018-03-07T05:31:54.952Z,2.20
2018-03-07T05:34:22.719Z,2.10
2018-03-07T05:36:50.184Z,2.00
2018-03-07T05:39:17.639Z,2.00
2018-03-07T05:41:45.099Z,2.00
2018-03-07T05:44:12.561Z,1.90
2018-03-07T05:46:40.686Z,2.00
2018-03-07T05:49:08.324Z,2.00
2018-03-07T05:51:35.779Z,1.90
2018-03-07T05:54:03.231Z,1.90
2018-03-07T05:56:30.704Z,2.00
2018-03-07T05:58:58.155Z,2.10
2018-03-07T06:01:25.685Z,2.20
2018-03-07T06:03:53.448Z,2.30
2018-03-07T06:06:20.912Z,2.40
2018-03-07T06:08:48.371Z,2.30
2018-03-07T06:11:15.947Z,2.40
2018-03-07T06:13:44.181Z,2.50
2018-03-07T06:16:11.897Z,2.50
2018-03-07T06:18:39.423Z,2.60
2018-03-07T06:21:06.961Z,2.60
2018-03-07T06:23:34.641Z,2.60
2018-03-07T06:26:02.108Z,2.70
2018-03-07T06:28:29.863Z,2.70
2018-03-07T06:30:57.547Z,2.60
2018-03-07T06:33:25.091Z,2.60
2018-03-07T06:35:52.554Z,2.50
2018-03-07T06:38:20.313Z,2.60
2018-03-07T06:40:48.071Z,2.50
2018-03-07T06:43:15.532Z,2.60
2018-03-07T06:45:43.300Z,2.70
2018-03-07T06:48:10.764Z,2.70
2018-03-07T06:50:38.440Z,2.50
2018-03-07T06:53:05.936Z,2.60
2018-03-07T06:55:33.400Z,2.50
2018-03-07T06:58:00.861Z,2.60
2018-03-07T07:00:28.355Z,2.60
2018-03-07T07:02:56.122Z,2.70
2018-03-07T07:05:23.612Z,2.80
2018-03-07T07:07:51.342Z,3.00
2018-03-07T07:10:18.798Z,3.20
2018-03-07T07:12:46.255Z,3.30
2018-03-07T07:15:13.716Z,3.40
2018-03-07T07:17:41.178Z,3.40
2018-03-07T07:20:08.633Z,3.50
2018-03-07T07:22:36.396Z,3.70
2018-03-07T07:25:04.126Z,3.80
2018-03-07T07:27:31.577Z,4.00
2018-03-07T07:29:59.039Z,4.10
2018-03-07T07:32:26.512Z,4.20
2018-03-07T07:34:54.009Z,4.20
2018-03-07T07:37:21.827Z,4.20
2018-03-07T07:39:49.527Z,4.20
2018-03-07T07:42:17.205Z,4.30
2018-03-07T07:44:44.663Z,4.20
2018-03-07T07:47:12.144Z,4.30
2018-03-07T07:49:39.589Z,4.30
2018-03-07T07:52:07.277Z,4.40
2018-03-07T07:54:34.890Z,4.40
2018-03-07T07:57:02.475Z,4.60
2018-03-07T07:59:30.719Z,4.70
2018-03-07T08:01:58.181Z,4.60
2018-03-07T08:04:25.656Z,4.70
2018-03-07T08:06:53.407Z,4.80
2018-03-07T08:09:20.865Z,4.90
2018-03-07T08:11:48.636Z,5.00
2018-03-07T08:14:16.139Z,5.10
2018-03-07T08:16:43.849Z,5.30
2018-03-07T08:19:11.616Z,5.40
2018-03-07T08:21:40.611Z,5.70
2018-03-07T08:24:08.380Z,5.70
2018-03-07T08:26:35.848Z,5.80
2018-03-07T08:29:03.416Z,5.90
2018-03-07T08:31:31.852Z,6.20
2018-03-07T08:33:59.438Z,6.10
2018-03-07T08:36:26.944Z,6.20
2018-03-07T08:38:54.402Z,6.50
2018-03-07T08:41:22.120Z,6.60
2018-03-07T08:43:49.886Z,6.70
2018-03-07T08:46:18.168Z,6.80
2018-03-07T08:48:45.635Z,6.80
2018-03-07T08:51:13.099Z,6.90
2018-03-07T08:53:40.610Z,7.00
2018-03-07T08:56:08.072Z,7.00
2018-03-07T08:58:35.542Z,7.10
2018-03-07T09:01:03.028Z,7.20
2018-03-07T09:03:30.687Z,7.40
2018-03-07T09:05:58.190Z,7.60
2018-03-07T09:08:25.694Z,7.80
2018-03-07T09:10:53.283Z,8.00
2018-03-07T09:13:20.760Z,8.30
2018-03-07T09:15:48.225Z,8.40
2018-03-07T09:18:15.708Z,8.60
2018-03-07T09:20:43.188Z,8.60
2018-03-07T09:23:10.711Z,8.90
2018-03-07T09:25:38.168Z,9.00
2018-03-07T09:28:05.679Z,9.00
2018-03-07T09:30:33.148Z,9.30
2018-03-07T09:33:00.892Z,10.70
2018-03-07T09:35:28.483Z,12.80
2018-03-07T09:37:56.105Z,14.60
2018-03-07T09:40:23.604Z,16.00
2018-03-07T09:42:51.253Z,16.80
2018-03-07T09:45:18.712Z,17.20
2018-03-07T09:47:46.185Z,17.10
2018-03-07T09:50:13.661Z,17.00
2018-03-07T09:52:41.180Z,16.60
2018-03-07T09:55:08.849Z,15.70
2018-03-07T09:57:36.388Z,15.00
2018-03-07T10:00:04.153Z,14.60
2018-03-07T10:02:31.648Z,13.80
2018-03-07T10:04:59.303Z,13.10
2018-03-07T10:07:26.772Z,12.30
2018-03-07T10:09:54.293Z,11.90
2018-03-07T10:12:21.788Z,11.70
2018-03-07T10:14:49.419Z,11.60
2018-03-07T10:17:16.889Z,11.50
2018-03-07T10:19:44.361Z,11.30
2018-03-07T10:22:11.880Z,11.10
2018-03-07T10:24:39.652Z,11.00
2018-03-07T10:27:07.140Z,11.00
2018-03-07T10:29:34.776Z,11.00
2018-03-07T10:32:02.236Z,10.90
2018-03-07T10:34:29.792Z,10.90
2018-03-07T10:36:57.556Z,10.90
2018-03-07T10:39:25.035Z,10.90
2018-03-07T10:41:52.652Z,10.90
2018-03-07T10:44:20.153Z,11.00
2018-03-07T10:46:47.728Z,11.00
2018-03-07T10:49:15.381Z,10.90
2018-03-07T10:51:42.868Z,10.90
2018-03-07T10:54:10.332Z,10.80
2018-03-07T10:56:37.840Z,10.70
2018-03-07T10:59:05.600Z,10.60
2018-03-07T11:01:33.069Z,10.60
2018-03-07T11:04:00.561Z,10.70
2018-03-07T11:06:28.046Z,10.70
2018-03-07T11:08:55.668Z,10.70
2018-03-07T11:11:23.146Z,10.70
2018-03-07T11:13:50.642Z,10.70
2018-03-07T11:16:18.117Z,10.70
2018-03-07T11:18:45.592Z,10.70
2018-03-07T11:21:13.253Z,10.60
2018-03-07T11:23:40.740Z,10.50
2018-03-07T11:26:08.217Z,10.40
2018-03-07T11:28:35.728Z,10.30
2018-03-07T11:31:03.472Z,10.20
2018-03-07T11:33:30.956Z,10.10
2018-03-07T11:35:58.695Z,10.00
2018-03-07T11:38:26.458Z,9.90
2018-03-07T11:40:53.920Z,9.70
2018-03-07T11:43:21.668Z,9.50
2018-03-07T11:45:49.148Z,9.40
2018-03-07T11:48:16.835Z,9.30
2018-03-07T11:50:44.361Z,9.20
2018-03-07T11:53:11.840Z,9.30
2018-03-07T11:55:39.529Z,9.40
2018-03-07T11:58:06.993Z,9.60
2018-03-07T12:00:34.460Z,9.90
2018-03-07T12:03:01.941Z,10.10
2018-03-07T12:05:29.711Z,10.50
2018-03-07T12:07:57.181Z,10.80
2018-03-07T12:10:24.652Z,11.00
2018-03-07T12:12:52.405Z,11.10
2018-03-07T12:15:19.949Z,11.30
2018-03-07T12:17:47.543Z,11.70
2018-03-07T12:20:15.094Z,12.20
2018-03-07T12:22:42.754Z,12.20
2018-03-07T12:25:10.225Z,12.00
2018-03-07T12:27:37.692Z,11.70
2018-03-07T12:30:05.169Z,11.60
2018-03-07T12:32:32.685Z,12.00
2018-03-07T12:35:00.445Z,12.10
2018-03-07T12:37:27.914Z,12.20
2018-03-07T12:39:55.384Z,12.40
2018-03-07T12:42:23.131Z,13.00
2018-03-07T12:44:50.610Z,13.20
2018-03-07T12:47:18.364Z,13.10
2018-03-07T12:49:46.123Z,12.80
2018-03-07T12:52:13.885Z,12.40
2018-03-07T12:54:41.643Z,12.00
2018-03-07T12:57:09.115Z,11.70
2018-03-07T12:59:36.576Z,11.50
2018-03-07T13:02:04.060Z,11.40
2018-03-07T13:04:31.784Z,11.30
2018-03-07T13:06:59.459Z,11.20
2018-03-07T13:09:26.958Z,11.10
2018-03-07T13:11:54.434Z,11.10
2018-03-07T13:14:21.904Z,11.10
2018-03-07T13:16:49.392Z,11.10
2018-03-07T13:19:17.250Z,11.20
2018-03-07T13:21:44.719Z,11.00
2018-03-07T13:24:12.964Z,10.90
2018-03-07T13:26:40.449Z,10.90
2018-03-07T13:29:07.911Z,11.00
2018-03-07T13:31:35.434Z,10.90
2018-03-07T13:34:03.060Z,11.00
2018-03-07T13:36:30.540Z,11.00
2018-03-07T13:38:58.007Z,11.10
2018-03-07T13:41:25.484Z,11.10
2018-03-07T13:43:53.277Z,11.10
2018-03-07T13:46:20.952Z,11.10
2018-03-07T13:48:48.405Z,11.10
2018-03-07T13:51:15.945Z,11.20
2018-03-07T13:53:43.713Z,11.10
2018-03-07T13:56:11.381Z,10.80
2018-03-07T13:58:38.985Z,10.50
2018-03-07T14:01:06.449Z,10.20
2018-03-07T14:03:34.070Z,10.10
2018-03-07T14:06:01.614Z,10.00
2018-03-07T14:08:29.079Z,9.90
2018-03-07T14:10:56.838Z,10.00
2018-03-07T14:13:24.300Z,9.90
2018-03-07T14:15:52.056Z,9.90
2018-03-07T14:18:19.522Z,9.90
2018-03-07T14:20:46.983Z,9.80
2018-03-07T14:23:14.444Z,9.80
2018-03-07T14:25:41.923Z,9.70
2018-03-07T14:28:09.614Z,9.80
2018-03-07T14:30:37.116Z,9.90
2018-03-07T14:33:04.584Z,10.00
2018-03-07T14:35:32.088Z,10.10
2018-03-07T14:37:59.561Z,10.10
2018-03-07T14:40:27.256Z,10.00
2018-03-07T14:42:54.948Z,9.90
2018-03-07T14:45:22.428Z,9.90
2018-03-07T14:47:49.887Z,9.90
2018-03-07T14:50:17.375Z,10.00
2018-03-07T14:52:44.840Z,9.90
2018-03-07T14:55:12.317Z,9.90
2018-03-07T14:57:40.588Z,9.60
2018-03-07T15:00:08.050Z,9.80
2018-03-07T15:02:35.516Z,9.70
2018-03-07T15:05:03.072Z,9.80
2018-03-07T15:07:30.533Z,9.70
2018-03-07T15:09:58.196Z,9.80
2018-03-07T15:12:25.668Z,9.70
2018-03-07T15:14:53.200Z,9.70
2018-03-07T15:17:20.880Z,9.70
2018-03-07T15:19:48.355Z,9.70
2018-03-07T15:22:15.839Z,9.60
2018-03-07T15:24:43.342Z,9.70
2018-03-07T15:27:10.800Z,9.70
2018-03-07T15:29:38.269Z,9.60
2018-03-07T15:32:06.021Z,9.50
2018-03-07T15:34:33.499Z,9.50
2018-03-07T15:37:01.240Z,9.50
2018-03-07T15:39:28.924Z,9.40
2018-03-07T15:41:56.393Z,9.40
2018-03-07T15:44:23.851Z,9.30
2018-03-07T15:46:51.325Z,9.30
2018-03-07T15:49:18.805Z,9.20
2018-03-07T15:51:46.309Z,9.20
2018-03-07T15:54:13.744Z,9.10
2018-03-07T15:56:41.525Z,9.00
2018-03-07T15:59:08.991Z,9.00
2018-03-07T16:01:36.466Z,9.00
2018-03-07T16:04:03.932Z,9.00
2018-03-07T16:06:31.393Z,8.90
2018-03-07T16:08:58.863Z,8.90
2018-03-07T16:11:26.550Z,8.90
2018-03-07T16:13:53.976Z,8.90
2018-03-07T16:16:21.449Z,9.00
2018-03-07T16:18:48.924Z,8.90
2018-03-07T16:21:16.399Z,8.90
2018-03-07T16:23:43.871Z,8.80
2018-03-07T16:26:11.337Z,8.70
2018-03-07T16:28:38.820Z,8.60
2018-03-07T16:31:06.489Z,8.60
2018-03-07T16:33:33.956Z,8.50
2018-03-07T16:36:01.431Z,8.50
2018-03-07T16:38:28.899Z,8.40
2018-03-07T16:40:56.374Z,8.40
2018-03-07T16:43:23.835Z,8.40
2018-03-07T16:45:51.600Z,8.30
2018-03-07T16:48:19.240Z,8.30
2018-03-07T16:50:46.847Z,8.30
2018-03-07T16:53:14.601Z,8.40
2018-03-07T16:55:42.356Z,8.30
2018-03-07T16:58:09.848Z,8.20
2018-03-07T17:00:37.506Z,8.20
2018-03-07T17:03:05.927Z,8.20
2018-03-07T17:05:33.426Z,8.30
2018-03-07T17:08:01.093Z,8.10
2018-03-07T17:10:28.664Z,8.10
2018-03-07T17:12:56.147Z,8.10
2018-03-07T17:15:23.612Z,8.10
2018-03-07T17:17:51.068Z,8.00
2018-03-07T17:20:18.740Z,8.00
2018-03-07T17:22:46.236Z,7.90
2018-03-07T17:25:13.938Z,7.90
2018-03-07T17:27:41.403Z,7.90
2018-03-07T17:30:08.875Z,7.90
2018-03-07T17:32:36.364Z,7.80
2018-03-07T17:35:04.136Z,7.80
2018-03-07T17:37:31.900Z,7.80
2018-03-07T17:39:59.348Z,7.80
2018-03-07T17:42:26.812Z,7.80
2018-03-07T17:44:54.489Z,7.80
2018-03-07T17:47:22.040Z,7.70
2018-03-07T17:49:49.839Z,7.70
2018-03-07T17:52:17.571Z,7.80
2018-03-07T17:54:45.164Z,7.70
2018-03-07T17:57:12.703Z,7.70
2018-03-07T17:59:40.252Z,7.50
2018-03-07T18:02:07.919Z,7.80
2018-03-07T18:04:35.387Z,7.70
2018-03-07T18:07:02.936Z,7.70
2018-03-07T18:09:30.693Z,7.80
2018-03-07T18:11:58.460Z,7.80
2018-03-07T18:14:26.232Z,7.70
2018-03-07T18:16:53.992Z,7.80
2018-03-07T18:19:21.454Z,7.80
2018-03-07T18:21:49.223Z,7.80
2018-03-07T18:24:16.980Z,7.90
2018-03-07T18:26:44.440Z,7.80
2018-03-07T18:29:12.125Z,7.80
2018-03-07T18:31:39.660Z,7.80
2018-03-07T18:34:07.131Z,7.70
2018-03-07T18:36:34.760Z,7.80
2018-03-07T18:39:02.248Z,7.70
2018-03-07T18:41:29.959Z,7.70
2018-03-07T18:43:57.563Z,7.70
2018-03-07T18:46:25.025Z,7.60
2018-03-07T18:48:52.788Z,7.80
2018-03-07T18:51:20.267Z,7.50
2018-03-07T18:53:47.916Z,7.60
2018-03-07T18:56:15.627Z,7.60
2018-03-07T18:58:43.234Z,7.50
2018-03-07T19:01:10.680Z,7.30
2018-03-07T19:03:38.147Z,7.30
2018-03-07T19:06:05.916Z,7.30
2018-03-07T19:08:33.679Z,7.10
2018-03-07T19:11:01.308Z,7.10
2018-03-07T19:13:28.759Z,7.10
2018-03-07T19:15:56.236Z,7.00
2018-03-07T19:18:23.821Z,6.90
2018-03-07T19:20:51.276Z,6.80
2018-03-07T19:23:19.040Z,6.80
2018-03-07T19:25:46.514Z,6.70
2018-03-07T19:28:14.263Z,6.60
2018-03-07T19:30:41.732Z,6.60
2018-03-07T19:33:09.205Z,6.50
2018-03-07T19:35:36.658Z,6.60
2018-03-07T19:38:04.411Z,6.60
2018-03-07T19:40:31.893Z,6.70
2018-03-07T19:42:59.629Z,6.60
2018-03-07T19:45:27.216Z,6.60
2018-03-07T19:47:55.447Z,6.60
2018-03-07T19:50:22.909Z,6.50
2018-03-07T19:52:50.380Z,6.60
2018-03-07T19:55:17.844Z,6.50
2018-03-07T19:57:45.312Z,6.50
2018-03-07T20:00:12.828Z,6.40
2018-03-07T20:02:40.224Z,6.50
2018-03-07T20:05:07.980Z,6.50
2018-03-07T20:07:35.740Z,6.50
2018-03-07T20:10:03.199Z,6.50
2018-03-07T20:12:30.675Z,6.50
2018-03-07T20:14:58.423Z,6.50
2018-03-07T20:17:25.892Z,6.50
2018-03-07T20:19:53.351Z,6.50
2018-03-07T20:22:20.812Z,6.40
2018-03-07T20:24:48.566Z,6.40
2018-03-07T20:27:16.327Z,6.40
2018-03-07T20:29:43.810Z,6.40
2018-03-07T20:32:11.272Z,6.40
2018-03-07T20:34:38.914Z,6.30
2018-03-07T20:37:06.463Z,6.40
2018-03-07T20:39:33.937Z,6.30
2018-03-07T20:42:01.396Z,6.30
2018-03-07T20:44:29.153Z,6.40
2018-03-07T20:46:56.604Z,6.40
2018-03-07T20:49:24.066Z,6.40
2018-03-07T20:51:51.531Z,6.40
2018-03-07T20:54:19.107Z,6.40
2018-03-07T20:56:47.331Z,6.40
2018-03-07T20:59:14.790Z,6.40
2018-03-07T21:01:42.255Z,6.40
2018-03-07T21:04:09.713Z,6.40
2018-03-07T21:06:37.192Z,6.50
2018-03-07T21:09:04.655Z,6.40
2018-03-07T21:11:32.112Z,6.40
2018-03-07T21:13:59.876Z,6.40
2018-03-07T21:16:27.635Z,6.40
2018-03-07T21:18:55.096Z,6.40
2018-03-07T21:21:22.563Z,6.50
2018-03-07T21:23:50.239Z,6.30
2018-03-07T21:26:17.777Z,6.20
2018-03-07T21:28:45.260Z,6.20
2018-03-07T21:31:12.723Z,6.20
2018-03-07T21:33:40.465Z,6.10
2018-03-07T21:36:07.947Z,6.10
2018-03-07T21:38:35.591Z,6.00
2018-03-07T21:41:03.055Z,6.00
2018-03-07T21:43:30.532Z,5.90
2018-03-07T21:45:58.008Z,5.90
2018-03-07T21:48:25.514Z,5.90
2018-03-07T21:50:53.276Z,5.80
2018-03-07T21:53:20.761Z,5.80
2018-03-07T21:55:48.412Z,5.80
2018-03-07T21:58:15.956Z,5.80
2018-03-07T22:00:43.724Z,5.70
2018-03-07T22:03:11.194Z,5.80
2018-03-07T22:05:38.944Z,5.70
2018-03-07T22:08:06.417Z,5.80
2018-03-07T22:10:33.872Z,5.70
2018-03-07T22:13:01.340Z,5.60
2018-03-07T22:15:29.083Z,5.60
2018-03-07T22:17:56.550Z,5.40
2018-03-07T22:20:24.307Z,5.40
2018-03-07T22:22:51.767Z,5.30
2018-03-07T22:25:19.228Z,5.20
2018-03-07T22:27:46.692Z,5.20
2018-03-07T22:30:14.452Z,5.20
2018-03-07T22:32:41.912Z,5.10
2018-03-07T22:35:09.371Z,5.10
2018-03-07T22:37:36.827Z,5.10
2018-03-07T22:40:04.505Z,5.00
2018-03-07T22:42:32.049Z,4.90
2018-03-07T22:44:59.516Z,4.80
2018-03-07T22:47:27.269Z,4.80
2018-03-07T22:49:54.726Z,4.80
2018-03-07T22:52:22.416Z,4.70
2018-03-07T22:54:49.868Z,4.80
2018-03-07T22:57:17.331Z,4.70
2018-03-07T22:59:44.859Z,4.70
2018-03-07T23:02:12.332Z,4.70
2018-03-07T23:04:39.997Z,4.70
2018-03-07T23:07:07.543Z,4.70
2018-03-07T23:09:35.008Z,4.60
2018-03-07T23:12:02.771Z,4.60
2018-03-07T23:14:30.242Z,4.60
2018-03-07T23:16:57.907Z,4.60
2018-03-07T23:19:26.291Z,4.50
2018-03-07T23:21:53.832Z,4.60
2018-03-07T23:24:21.591Z,4.60
2018-03-07T23:26:49.059Z,4.60
2018-03-07T23:29:16.817Z,4.60
2018-03-07T23:31:44.512Z,4.60
2018-03-07T23:34:11.968Z,4.60
2018-03-07T23:36:39.504Z,4.60
2018-03-07T23:39:06.981Z,4.60
2018-03-07T23:41:34.444Z,4.60
2018-03-07T23:44:02.117Z,4.60
2018-03-07T23:46:29.567Z,4.50
2018-03-07T23:48:57.093Z,4.60
2018-03-07T23:51:24.560Z,4.50
2018-03-07T23:53:52.021Z,4.50
2018-03-07T23:56:19.696Z,4.50
2018-03-07T23:58:47.152Z,4.50
